Time;durP1;ratioP1;P1;durP2;ratioP2;P2;SDS_P1;SDS_P2;PMS_P1;PMS_P2;Temp;Humidity;BMP_temperature;BMP_pressure;BME280_temperature;BME280_humidity;BME280_pressure;Samples;Min_cycle;Max_cycle;Signal;HPM_P1;HPM_P2
2023/04/08 00:00:48;;;;;;;17.60;15.80;;;;;19.90;101038.00;;;;2071063;28;20218;-69
2023/04/08 00:01:48;;;;;;;17.52;15.52;;;;;19.90;101032.00;;;;2071536;28;20214;-68
2023/04/08 00:02:48;;;;;;;19.33;16.63;;;;;19.80;101034.00;;;;2071125;28;20716;-69
2023/04/08 00:03:49;;;;;;;18.23;16.30;;;;;19.80;101033.00;;;;2071642;28;20578;-69
2023/04/08 00:04:49;;;;;;;17.27;15.40;;;;;19.70;101021.00;;;;2071756;28;20577;-68
2023/04/08 00:05:49;;;;;;;17.40;15.53;;;;;19.90;101037.00;;;;2063379;28;20207;-68
2023/04/08 00:06:50;;;;;;;17.37;15.47;;;;;19.90;101045.00;;;;2063132;28;20225;-69
2023/04/08 00:07:50;;;;;;;17.67;15.53;;;;;19.80;101040.00;;;;2071025;28;20203;-69
2023/04/08 00:08:51;;;;;;;17.77;16.07;;;;;19.80;101039.00;;;;2077901;28;20224;-69
2023/04/08 00:09:51;;;;;;;18.40;16.50;;;;;19.90;101043.00;;;;2071485;28;20276;-69
2023/04/08 00:10:52;;;;;;;16.40;14.77;;;;;19.90;101043.00;;;;2062121;28;20211;-69
2023/04/08 00:11:52;;;;;;;16.88;15.18;;;;;19.80;101043.00;;;;2062237;28;20222;-69
2023/04/08 00:12:54;;;;;;;16.63;14.80;;;;;19.80;101046.00;;;;2070052;28;20221;-69
2023/04/08 00:13:54;;;;;;;17.55;15.38;;;;;19.80;101046.00;;;;2071409;28;20222;-69
2023/04/08 00:14:55;;;;;;;17.23;15.37;;;;;19.80;101045.00;;;;2070874;28;20210;-69
2023/04/08 00:15:55;;;;;;;16.07;14.37;;;;;19.80;101042.00;;;;2071627;28;20218;-69
2023/04/08 00:16:55;;;;;;;15.97;14.37;;;;;19.80;101051.00;;;;2071577;28;20276;-69
2023/04/08 00:17:56;;;;;;;16.90;15.00;;;;;19.80;101044.00;;;;2071150;28;20675;-69
2023/04/08 00:18:56;;;;;;;16.03;14.43;;;;;19.80;101042.00;;;;2071502;28;20595;-69
2023/04/08 00:19:56;;;;;;;15.80;14.20;;;;;19.80;101038.00;;;;2075536;28;20232;-69
2023/04/08 00:20:57;;;;;;;17.10;15.37;;;;;19.80;101043.00;;;;2071578;28;20214;-69
2023/04/08 00:21:57;;;;;;;15.73;14.03;;;;;19.80;101045.00;;;;2072391;28;20222;-69
2023/04/08 00:22:57;;;;;;;16.20;14.53;;;;;19.80;101046.00;;;;2073800;28;20217;-68
2023/04/08 00:23:58;;;;;;;15.20;13.60;;;;;19.80;101043.00;;;;2071374;28;20206;-69
2023/04/08 00:24:58;;;;;;;16.80;14.77;;;;;19.80;101040.00;;;;2071095;28;20214;-68
2023/04/08 00:25:58;;;;;;;16.67;15.07;;;;;19.80;101048.00;;;;2071718;28;20221;-69
2023/04/08 00:26:59;;;;;;;14.87;13.17;;;;;19.80;101042.00;;;;2070862;28;20556;-69
2023/04/08 00:28:00;;;;;;;15.03;13.53;;;;;19.80;101051.00;;;;2071794;28;20648;-68
2023/04/08 00:29:00;;;;;;;15.57;13.70;;;;;19.80;101051.00;;;;2070632;28;20528;-68
2023/04/08 00:30:01;;;;;;;16.10;14.50;;;;;19.80;101048.00;;;;2071462;28;20210;-69
2023/04/08 00:31:01;;;;;;;15.50;13.88;;;;;19.80;100967.00;;;;2070764;28;20214;-69
2023/04/08 00:32:02;;;;;;;15.37;13.03;;;;;19.80;101047.00;;;;2071028;28;20290;-69
2023/04/08 00:33:03;;;;;;;15.10;13.50;;;;;19.80;101047.00;;;;2071441;28;20225;-69
2023/04/08 00:34:03;;;;;;;14.87;13.37;;;;;19.70;101040.00;;;;2071963;28;20889;-69
2023/04/08 00:35:04;;;;;;;15.10;13.50;;;;;19.80;101039.00;;;;2062914;28;20631;-68
2023/04/08 00:36:04;;;;;;;14.90;13.40;;;;;19.80;101057.00;;;;2064475;28;20644;-68
2023/04/08 00:37:05;;;;;;;14.53;13.13;;;;;19.80;101046.00;;;;2071885;28;20205;-68
2023/04/08 00:38:06;;;;;;;14.70;13.20;;;;;19.80;101050.00;;;;2070712;28;20214;-68
2023/04/08 00:39:07;;;;;;;14.70;13.27;;;;;19.70;101025.00;;;;2071153;28;20214;-68
2023/04/08 00:40:08;;;;;;;13.10;11.70;;;;;19.70;101041.00;;;;2071354;28;20216;-68
2023/04/08 00:41:08;;;;;;;14.10;12.70;;;;;19.70;101050.00;;;;2070579;28;20757;-68
2023/04/08 00:42:08;;;;;;;14.23;12.83;;;;;19.70;101058.00;;;;2069369;28;20214;-68
2023/04/08 00:43:09;;;;;;;14.17;12.77;;;;;19.70;101049.00;;;;2070117;28;20206;-68
2023/04/08 00:44:09;;;;;;;13.63;12.20;;;;;19.70;101056.00;;;;2072684;28;20257;-68
2023/04/08 00:45:10;;;;;;;13.77;12.47;;;;;19.70;101053.00;;;;2070685;28;20220;-69
2023/04/08 00:46:10;;;;;;;12.57;11.33;;;;;19.80;101044.00;;;;2071477;28;20202;-68
2023/04/08 00:47:15;;;;;;;13.00;11.70;;;;;19.70;101058.00;;;;2071308;28;20212;-69
2023/04/08 00:48:15;;;;;;;13.00;11.70;;;;;19.70;101053.00;;;;2062095;28;20301;-69
2023/04/08 00:49:16;;;;;;;13.73;12.33;;;;;19.70;101056.00;;;;2062801;28;20274;-68
2023/04/08 00:50:17;;;;;;;14.75;13.25;;;;;19.70;101058.00;;;;2070641;28;20218;-68
2023/04/08 00:51:18;;;;;;;13.27;11.97;;;;;19.70;101059.00;;;;2070891;28;20704;-69
2023/04/08 00:52:18;;;;;;;13.95;12.55;;;;;19.70;101057.00;;;;2062810;28;20219;-69
2023/04/08 00:53:19;;;;;;;13.43;12.10;;;;;19.70;101061.00;;;;2063444;28;20221;-68
2023/04/08 00:54:19;;;;;;;13.13;11.90;;;;;19.70;101060.00;;;;2062268;28;20232;-69
2023/04/08 00:55:19;;;;;;;12.53;11.33;;;;;19.70;101053.00;;;;2061746;28;20262;-69
2023/04/08 00:56:20;;;;;;;13.40;12.03;;;;;19.70;101060.00;;;;2071085;28;20572;-68
2023/04/08 00:57:21;;;;;;;13.90;12.70;;;;;19.70;101049.00;;;;2070618;28;20229;-69
2023/04/08 00:58:21;;;;;;;13.17;11.87;;;;;19.40;101050.00;;;;2071157;28;20716;-69
2023/04/08 00:59:22;;;;;;;13.10;11.80;;;;;19.70;101023.00;;;;2063621;28;20223;-69
2023/04/08 01:00:22;;;;;;;13.77;12.40;;;;;19.70;101049.00;;;;2056155;28;20220;-69
2023/04/08 01:01:42;;;;;;;13.30;12.00;;;;;19.70;101054.00;;;;2061606;28;20226;-68
2023/04/08 01:03:00;;;;;;;12.82;11.55;;;;;19.70;101055.00;;;;2079339;28;20244;-68
2023/04/08 01:04:06;;;;;;;11.65;10.45;;;;;19.60;101058.00;;;;2078351;28;20213;-68
2023/04/08 01:05:12;;;;;;;14.27;12.68;;;;;19.70;101057.00;;;;2078792;28;20695;-69
2023/04/08 01:06:20;;;;;;;12.77;11.48;;;;;19.60;101056.00;;;;2069656;28;20221;-69
2023/04/08 01:07:30;;;;;;;12.65;11.48;;;;;19.70;101053.00;;;;2060427;28;20258;-69
2023/04/08 01:08:30;;;;;;;11.82;10.73;;;;;19.60;101054.00;;;;2071755;28;20215;-69
2023/04/08 01:09:31;;;;;;;12.20;11.07;;;;;19.60;101056.00;;;;2070232;28;20226;-68
2023/04/08 01:10:33;;;;;;;11.38;10.18;;;;;19.60;101055.00;;;;2070940;28;20214;-68
2023/04/08 01:11:33;;;;;;;13.38;12.07;;;;;19.60;101024.00;;;;2082909;28;20219;-68
2023/04/08 01:12:36;;;;;;;11.63;10.53;;;;;19.60;101058.00;;;;2072568;28;20232;-68
2023/04/08 01:13:39;;;;;;;11.88;10.68;;;;;19.70;101037.00;;;;2061994;28;20214;-68
2023/04/08 01:14:41;;;;;;;12.40;11.07;;;;;19.70;101006.00;;;;2070525;28;20214;-69
2023/04/08 01:15:41;;;;;;;12.88;11.70;;;;;19.70;101061.00;;;;2071290;28;20218;-68
2023/04/08 01:16:41;;;;;;;12.13;11.03;;;;;19.60;101052.00;;;;2069876;28;20319;-69
2023/04/08 01:17:42;;;;;;;13.10;11.57;;;;;19.60;101054.00;;;;2058729;28;20222;-68
2023/04/08 01:18:43;;;;;;;12.27;11.20;;;;;19.70;101063.00;;;;2060552;28;20207;-69
2023/04/08 01:19:43;;;;;;;12.00;10.80;;;;;19.60;101062.00;;;;2059945;28;20229;-69
2023/04/08 01:20:44;;;;;;;11.43;10.40;;;;;19.70;101072.00;;;;2064415;28;20229;-69
2023/04/08 01:21:44;;;;;;;11.67;10.50;;;;;19.60;101060.00;;;;2072043;28;20218;-68
2023/04/08 01:23:00;;;;;;;11.67;10.57;;;;;19.60;101061.00;;;;2070357;28;20272;-68
2023/04/08 01:24:01;;;;;;;11.35;10.25;;;;;19.60;101066.00;;;;2078723;28;20784;-68
2023/04/08 01:25:06;;;;;;;12.20;11.00;;;;;19.60;101051.00;;;;2077923;28;20228;-69
2023/04/08 01:26:07;;;;;;;11.85;10.68;;;;;19.60;101059.00;;;;2078891;28;20842;-68
2023/04/08 01:27:07;;;;;;;11.63;10.53;;;;;19.60;101052.00;;;;2078837;28;20222;-69
2023/04/08 01:28:12;;;;;;;11.63;10.53;;;;;19.60;101065.00;;;;2077832;28;20197;-68
2023/04/08 01:29:12;;;;;;;10.98;9.98;;;;;19.60;101068.00;;;;2078718;28;20732;-69
2023/04/08 01:30:13;;;;;;;11.70;10.60;;;;;19.60;101065.00;;;;2070503;28;20282;-68
2023/04/08 01:31:14;;;;;;;11.55;10.45;;;;;19.60;101017.00;;;;2078649;28;20224;-69
2023/04/08 01:32:15;;;;;;;11.97;10.80;;;;;19.60;101067.00;;;;2077624;28;20197;-69
2023/04/08 01:33:16;;;;;;;11.57;10.38;;;;;19.60;101063.00;;;;2067832;28;20659;-69
2023/04/08 01:34:18;;;;;;;11.23;10.13;;;;;19.60;101066.00;;;;2062288;28;20226;-68
2023/04/08 01:35:18;;;;;;;11.63;10.50;;;;;19.60;101066.00;;;;2063736;28;20219;-68
2023/04/08 01:36:19;;;;;;;10.77;9.77;;;;;19.60;101065.00;;;;2078634;28;20213;-68
2023/04/08 01:37:19;;;;;;;11.48;10.38;;;;;19.60;101064.00;;;;2077843;28;20651;-68
2023/04/08 01:38:20;;;;;;;11.07;9.87;;;;;19.60;101059.00;;;;2070696;28;20222;-68
2023/04/08 01:39:20;;;;;;;12.67;11.47;;;;;19.60;101038.00;;;;2069979;28;20858;-68
2023/04/08 01:40:21;;;;;;;11.90;10.80;;;;;19.60;101063.00;;;;2078733;28;20235;-69
2023/04/08 01:41:21;;;;;;;11.30;10.20;;;;;19.60;101053.00;;;;2069938;28;20226;-68
2023/04/08 01:42:22;;;;;;;10.33;9.33;;;;;19.60;101064.00;;;;2066857;28;20344;-69
2023/04/08 01:43:23;;;;;;;11.93;10.65;;;;;19.50;101045.00;;;;2068813;28;20680;-69
2023/04/08 01:44:23;;;;;;;11.53;10.43;;;;;19.60;101065.00;;;;2070813;28;20214;-68
2023/04/08 01:45:24;;;;;;;11.70;10.53;;;;;19.60;101069.00;;;;2074238;28;20221;-68
2023/04/08 01:46:24;;;;;;;10.87;9.87;;;;;19.60;101062.00;;;;2077624;28;20221;-67
2023/04/08 01:47:24;;;;;;;9.53;8.70;;;;;19.60;101060.00;;;;2078613;28;20209;-69
2023/04/08 01:48:25;;;;;;;10.90;9.87;;;;;19.60;101061.00;;;;2062980;28;20447;-66
2023/04/08 01:49:25;;;;;;;10.97;9.80;;;;;19.60;101067.00;;;;2057506;28;20217;-67
2023/04/08 01:50:26;;;;;;;10.67;9.63;;;;;19.60;101036.00;;;;2078786;28;20214;-67
2023/04/08 01:51:26;;;;;;;11.40;10.30;;;;;19.60;101060.00;;;;2077628;28;20268;-66
2023/04/08 01:52:27;;;;;;;10.70;9.70;;;;;19.60;101072.00;;;;2070356;28;20442;-66
2023/04/08 01:53:28;;;;;;;11.13;10.07;;;;;19.60;101069.00;;;;2057205;28;20207;-66
2023/04/08 01:54:28;;;;;;;11.97;10.87;;;;;19.60;101069.00;;;;2067327;28;20252;-67
2023/04/08 01:55:29;;;;;;;10.30;9.30;;;;;19.60;101073.00;;;;2078607;28;20212;-67
2023/04/08 01:56:29;;;;;;;10.30;9.33;;;;;19.70;101072.00;;;;2078596;28;20498;-66
2023/04/08 01:57:31;;;;;;;11.47;10.30;;;;;19.70;101043.00;;;;2078744;28;20260;-69
2023/04/08 01:58:36;;;;;;;11.95;10.05;;;;;19.60;101076.00;;;;2069437;28;20761;-68
2023/04/08 01:59:37;;;;;;;10.77;9.77;;;;;19.60;101044.00;;;;2070545;28;20221;-69
2023/04/08 02:00:38;;;;;;;11.27;10.17;;;;;19.60;101051.00;;;;2074568;28;20272;-69
2023/04/08 02:01:38;;;;;;;11.27;10.27;;;;;19.50;101084.00;;;;2070240;28;20559;-68
2023/04/08 02:02:40;;;;;;;10.70;9.80;;;;;19.50;101047.00;;;;2078691;28;20824;-69
2023/04/08 02:03:41;;;;;;;12.18;10.88;;;;;19.50;101071.00;;;;2069917;28;20221;-69
2023/04/08 02:04:41;;;;;;;11.13;10.13;;;;;19.50;101073.00;;;;2070140;28;20226;-69
2023/04/08 02:05:42;;;;;;;11.40;10.40;;;;;19.50;101067.00;;;;2078502;28;20214;-69
2023/04/08 02:06:42;;;;;;;11.50;10.50;;;;;19.50;101076.00;;;;2078246;28;20209;-69
2023/04/08 02:07:44;;;;;;;11.53;9.93;;;;;19.40;101078.00;;;;2071450;28;20249;-69
2023/04/08 02:08:45;;;;;;;11.25;10.35;;;;;19.40;101073.00;;;;2071765;28;20686;-69
2023/04/08 02:09:45;;;;;;;11.20;10.20;;;;;19.50;101082.00;;;;2080536;28;20244;-69
2023/04/08 02:10:46;;;;;;;11.87;10.63;;;;;19.40;101079.00;;;;2080346;28;20220;-69
2023/04/08 02:11:46;;;;;;;11.10;9.97;;;;;19.40;101082.00;;;;2079775;28;20340;-69
2023/04/08 02:12:46;;;;;;;10.80;9.80;;;;;19.40;101067.00;;;;2080739;28;20673;-69
2023/04/08 02:13:47;;;;;;;10.97;9.90;;;;;19.40;101079.00;;;;2079847;28;20698;-69
2023/04/08 02:14:47;;;;;;;11.17;10.17;;;;;19.40;101064.00;;;;2080060;28;20235;-69
2023/04/08 02:15:52;;;;;;;10.27;9.30;;;;;19.40;101073.00;;;;2078314;28;20214;-71
2023/04/08 02:16:54;;;;;;;9.95;9.05;;;;;19.40;101075.00;;;;2080840;28;20220;-68
2023/04/08 02:17:55;;;;;;;10.50;9.60;;;;;19.40;101070.00;;;;2079947;28;20259;-68
2023/04/08 02:18:57;;;;;;;10.37;9.47;;;;;19.40;101067.00;;;;2079094;28;20221;-68
2023/04/08 02:19:57;;;;;;;10.48;9.57;;;;;19.30;101072.00;;;;2079009;28;20467;-68
2023/04/08 02:21:03;;;;;;;11.20;10.10;;;;;19.30;101046.00;;;;2081396;28;20289;-68
2023/04/08 02:22:10;;;;;;;11.70;10.52;;;;;19.40;101078.00;;;;2079794;28;20221;-68
2023/04/08 02:23:13;;;;;;;10.00;9.20;;;;;19.40;101082.00;;;;2080967;28;20290;-68
2023/04/08 02:24:14;;;;;;;10.13;9.13;;;;;19.40;101052.00;;;;2080093;28;20208;-69
2023/04/08 02:25:15;;;;;;;10.70;9.70;;;;;19.40;101076.00;;;;2076367;28;20222;-68
2023/04/08 02:26:16;;;;;;;11.60;9.38;;;;;19.40;101079.00;;;;2079896;28;20239;-68
2023/04/08 02:27:16;;;;;;;10.70;9.70;;;;;19.40;101070.00;;;;2079982;28;20565;-68
2023/04/08 02:28:17;;;;;;;11.20;10.20;;;;;19.30;101051.00;;;;2079579;28;20232;-68
2023/04/08 02:29:17;;;;;;;13.97;12.57;;;;;19.40;101076.00;;;;2071838;28;20222;-68
2023/04/08 02:30:17;;;;;;;14.93;13.50;;;;;19.40;101079.00;;;;2075557;28;20475;-69
2023/04/08 02:31:18;;;;;;;18.50;16.73;;;;;19.40;101076.00;;;;2072912;28;20225;-69
2023/04/08 02:32:18;;;;;;;20.03;18.03;;;;;19.30;101077.00;;;;2070801;28;21095;-68
2023/04/08 02:33:20;;;;;;;21.80;19.50;;;;;19.30;101060.00;;;;2071659;28;20650;-68
2023/04/08 02:34:20;;;;;;;31.92;24.30;;;;;19.30;101078.00;;;;2070618;28;20578;-68
2023/04/08 02:35:21;;;;;;;30.83;27.53;;;;;19.30;101075.00;;;;2079678;28;20228;-68
2023/04/08 02:36:21;;;;;;;31.90;27.77;;;;;19.30;101082.00;;;;2080009;28;20457;-68
2023/04/08 02:37:21;;;;;;;34.37;30.67;;;;;19.30;101066.00;;;;2079121;28;20287;-68
2023/04/08 02:38:22;;;;;;;35.03;30.27;;;;;19.30;101086.00;;;;2079676;28;20218;-68
2023/04/08 02:39:30;;;;;;;43.13;36.30;;;;;19.30;101069.00;;;;2078842;28;20248;-68
2023/04/08 02:40:32;;;;;;;47.40;38.67;;;;;19.30;101084.00;;;;2079883;28;20457;-68
2023/04/08 02:41:32;;;;;;;46.28;38.70;;;;;19.30;101086.00;;;;2080405;28;20213;-68
2023/04/08 02:42:32;;;;;;;48.00;41.00;;;;;19.30;101074.00;;;;2076949;28;20203;-68
2023/04/08 02:43:33;;;;;;;44.63;39.63;;;;;19.30;101082.00;;;;2079937;28;20229;-68
2023/04/08 02:44:33;;;;;;;50.50;41.53;;;;;19.30;101076.00;;;;2079237;28;20217;-68
2023/04/08 02:45:43;;;;;;;46.00;39.47;;;;;19.30;101075.00;;;;2079811;28;20754;-68
2023/04/08 02:46:43;;;;;;;48.08;41.33;;;;;19.30;101073.00;;;;2083144;28;20221;-68
2023/04/08 02:47:43;;;;;;;48.50;40.80;;;;;19.30;101057.00;;;;2079108;28;20218;-68
2023/04/08 02:48:44;;;;;;;48.57;39.70;;;;;19.30;101063.00;;;;2079975;28;20274;-69
2023/04/08 02:49:44;;;;;;;46.10;40.00;;;;;19.30;101084.00;;;;2080287;28;20585;-68
2023/04/08 02:50:44;;;;;;;43.57;38.30;;;;;19.20;101083.00;;;;2079944;28;24878;-68
2023/04/08 02:51:45;;;;;;;43.60;38.07;;;;;19.20;101081.00;;;;2080099;28;20228;-69
2023/04/08 02:52:45;;;;;;;46.17;39.23;;;;;19.30;101083.00;;;;2080625;28;20743;-68
2023/04/08 02:53:46;;;;;;;43.73;38.93;;;;;19.30;101081.00;;;;2079709;28;20677;-68
2023/04/08 02:54:46;;;;;;;45.70;40.77;;;;;19.20;101078.00;;;;2077302;28;20294;-69
2023/04/08 02:55:46;;;;;;;44.97;40.17;;;;;19.20;101087.00;;;;2086044;28;20703;-68
2023/04/08 02:56:47;;;;;;;49.17;43.20;;;;;19.20;101048.00;;;;2077676;28;20225;-68
2023/04/08 02:57:47;;;;;;;50.00;41.73;;;;;19.20;101077.00;;;;2079047;28;20217;-68
2023/04/08 02:58:48;;;;;;;48.93;43.33;;;;;19.20;101083.00;;;;2080289;28;20271;-68
2023/04/08 02:59:48;;;;;;;52.93;43.37;;;;;19.20;101088.00;;;;2080149;28;20221;-68
2023/04/08 03:00:48;;;;;;;50.90;44.77;;;;;19.20;101066.00;;;;2082394;28;20263;-68
2023/04/08 03:01:49;;;;;;;55.57;45.87;;;;;19.20;101087.00;;;;2079446;28;20221;-68
2023/04/08 03:02:49;;;;;;;56.27;46.77;;;;;19.20;101093.00;;;;2079325;28;20212;-68
2023/04/08 03:03:49;;;;;;;58.60;48.40;;;;;19.20;101087.00;;;;2080342;28;20240;-68
2023/04/08 03:04:50;;;;;;;56.53;46.80;;;;;19.20;101088.00;;;;2080446;28;20213;-68
2023/04/08 03:05:50;;;;;;;58.53;46.80;;;;;19.20;101073.00;;;;2080666;28;20275;-68
2023/04/08 03:06:50;;;;;;;54.13;45.00;;;;;19.20;101077.00;;;;2079947;28;20212;-68
2023/04/08 03:07:51;;;;;;;59.10;45.77;;;;;19.20;101090.00;;;;2079195;28;20271;-68
2023/04/08 03:08:51;;;;;;;54.60;47.20;;;;;19.20;101089.00;;;;2080291;28;20227;-68
2023/04/08 03:09:53;;;;;;;57.37;44.77;;;;;19.20;101095.00;;;;2082154;28;20228;-69
2023/04/08 03:10:54;;;;;;;54.10;44.05;;;;;19.20;101090.00;;;;2082554;28;20220;-68
2023/04/08 03:11:54;;;;;;;52.43;42.13;;;;;19.20;101090.00;;;;2079380;28;20255;-68
2023/04/08 03:12:55;;;;;;;48.57;41.10;;;;;19.20;101094.00;;;;2079751;28;20205;-68
2023/04/08 03:13:55;;;;;;;51.97;43.80;;;;;19.20;101083.00;;;;2079873;28;20236;-68
2023/04/08 03:14:55;;;;;;;51.47;40.47;;;;;19.20;101042.00;;;;2079510;28;20677;-68
2023/04/08 03:15:56;;;;;;;46.57;39.00;;;;;19.20;101095.00;;;;2079309;28;20309;-68
2023/04/08 03:16:56;;;;;;;44.80;37.10;;;;;19.20;101095.00;;;;2080263;28;20320;-68
2023/04/08 03:17:56;;;;;;;43.80;36.17;;;;;19.20;101094.00;;;;2080378;28;20274;-67
2023/04/08 03:18:57;;;;;;;45.10;38.07;;;;;19.20;101094.00;;;;2079304;28;20213;-68
2023/04/08 03:19:57;;;;;;;42.83;35.40;;;;;19.10;101092.00;;;;2079298;28;20277;-68
2023/04/08 03:20:57;;;;;;;41.87;35.23;;;;;19.20;101062.00;;;;2071295;28;20280;-68
2023/04/08 03:21:58;;;;;;;37.20;31.73;;;;;19.20;101106.00;;;;2078461;28;20968;-68
2023/04/08 03:22:58;;;;;;;38.20;32.57;;;;;19.20;101108.00;;;;2080138;28;20751;-68
2023/04/08 03:23:58;;;;;;;37.70;31.60;;;;;19.20;101074.00;;;;2079262;28;20634;-68
2023/04/08 03:24:59;;;;;;;40.17;31.77;;;;;19.20;101078.00;;;;2080244;28;20659;-68
2023/04/08 03:25:59;;;;;;;34.90;30.80;;;;;19.20;101093.00;;;;2079272;28;20688;-68
2023/04/08 03:27:00;;;;;;;35.10;31.30;;;;;19.20;101091.00;;;;2083516;28;20627;-68
2023/04/08 03:28:00;;;;;;;34.73;29.80;;;;;19.20;101095.00;;;;2080212;28;20300;-68
2023/04/08 03:29:00;;;;;;;34.33;28.77;;;;;19.20;101095.00;;;;2082599;28;20266;-68
2023/04/08 03:30:01;;;;;;;31.20;27.10;;;;;19.20;101086.00;;;;2080213;28;20248;-68
2023/04/08 03:31:04;;;;;;;31.07;27.47;;;;;19.10;101090.00;;;;2081443;28;20293;-68
2023/04/08 03:32:05;;;;;;;31.70;28.30;;;;;19.20;101067.00;;;;2081393;28;20339;-68
2023/04/08 03:33:06;;;;;;;31.80;27.27;;;;;19.10;101087.00;;;;2079892;28;20256;-68
2023/04/08 03:34:07;;;;;;;30.38;26.02;;;;;19.10;101088.00;;;;2080009;28;20213;-68
2023/04/08 03:35:08;;;;;;;29.07;25.97;;;;;19.20;101092.00;;;;2080295;28;20212;-68
2023/04/08 03:36:08;;;;;;;28.23;23.63;;;;;19.20;101088.00;;;;2083054;28;20228;-68
2023/04/08 03:37:09;;;;;;;29.03;25.80;;;;;19.20;101090.00;;;;2079400;28;20462;-69
2023/04/08 03:38:09;;;;;;;31.10;26.40;;;;;19.20;101071.00;;;;2081693;28;20640;-68
2023/04/08 03:39:09;;;;;;;30.03;25.67;;;;;19.10;101100.00;;;;2081719;28;20244;-67
2023/04/08 03:40:10;;;;;;;27.80;24.80;;;;;19.10;101078.00;;;;2079080;28;20221;-68
2023/04/08 03:41:11;;;;;;;26.67;23.77;;;;;19.10;101076.00;;;;2073370;28;20233;-68
2023/04/08 03:42:11;;;;;;;28.00;23.97;;;;;19.10;101103.00;;;;2077148;28;20215;-68
2023/04/08 03:43:12;;;;;;;25.30;22.73;;;;;19.10;101088.00;;;;2077468;28;20213;-68
2023/04/08 03:44:12;;;;;;;27.60;24.60;;;;;19.10;101101.00;;;;2079311;28;20217;-68
2023/04/08 03:45:13;;;;;;;24.70;22.20;;;;;19.10;101089.00;;;;2079100;28;20490;-68
2023/04/08 03:46:13;;;;;;;25.37;21.53;;;;;19.10;101089.00;;;;2079883;28;20220;-68
2023/04/08 03:47:13;;;;;;;25.50;22.20;;;;;19.10;101094.00;;;;2078843;28;20218;-69
2023/04/08 03:48:14;;;;;;;26.20;23.27;;;;;19.10;101094.00;;;;2079960;28;20233;-67
2023/04/08 03:49:14;;;;;;;22.13;19.77;;;;;19.10;101102.00;;;;2079909;28;20267;-68
2023/04/08 03:50:14;;;;;;;23.23;20.30;;;;;19.10;101106.00;;;;2080604;28;20306;-68
2023/04/08 03:51:15;;;;;;;25.97;21.83;;;;;19.10;101093.00;;;;2080022;28;20214;-68
2023/04/08 03:52:15;;;;;;;21.47;19.17;;;;;19.10;101100.00;;;;2078548;28;20214;-68
2023/04/08 03:53:15;;;;;;;22.77;20.37;;;;;19.10;101105.00;;;;2079653;28;20213;-68
2023/04/08 03:54:16;;;;;;;21.83;19.47;;;;;19.10;101114.00;;;;2079362;28;20363;-68
2023/04/08 03:55:16;;;;;;;21.00;18.80;;;;;19.00;101105.00;;;;2079100;28;20217;-68
2023/04/08 03:56:16;;;;;;;21.10;18.43;;;;;19.10;101110.00;;;;2070887;28;20216;-68
2023/04/08 03:57:17;;;;;;;21.60;18.43;;;;;19.10;101109.00;;;;2076915;28;20247;-68
2023/04/08 03:58:17;;;;;;;21.63;19.33;;;;;19.10;101117.00;;;;2079877;28;20217;-68
2023/04/08 03:59:17;;;;;;;23.50;19.27;;;;;19.10;101103.00;;;;2079017;28;20224;-68
2023/04/08 04:00:18;;;;;;;20.83;18.10;;;;;19.00;101111.00;;;;2079901;28;20304;-68
2023/04/08 04:01:18;;;;;;;20.43;18.10;;;;;19.10;101101.00;;;;2078874;28;20218;-68
2023/04/08 04:02:18;;;;;;;19.00;17.10;;;;;19.10;101107.00;;;;2085301;28;20743;-68
2023/04/08 04:03:19;;;;;;;19.27;17.43;;;;;19.10;101109.00;;;;2078937;28;20724;-68
2023/04/08 04:04:20;;;;;;;19.83;17.83;;;;;19.10;101065.00;;;;2082430;28;20712;-68
2023/04/08 04:05:20;;;;;;;18.83;16.83;;;;;19.00;101100.00;;;;2079798;28;20224;-68
2023/04/08 04:06:21;;;;;;;19.37;17.40;;;;;19.10;101106.00;;;;2069969;28;20461;-68
2023/04/08 04:07:21;;;;;;;19.17;17.07;;;;;19.00;101108.00;;;;2071098;28;20222;-68
2023/04/08 04:08:21;;;;;;;17.60;15.80;;;;;19.10;101114.00;;;;2077711;28;20284;-68
2023/04/08 04:09:22;;;;;;;18.57;16.57;;;;;19.00;101110.00;;;;2079342;28;20245;-68
2023/04/08 04:10:22;;;;;;;16.93;15.13;;;;;19.00;101113.00;;;;2078733;28;20289;-68
2023/04/08 04:11:22;;;;;;;18.30;16.40;;;;;19.10;101110.00;;;;2079012;28;20734;-68
2023/04/08 04:12:23;;;;;;;16.53;14.83;;;;;19.10;101100.00;;;;2078802;28;20735;-68
2023/04/08 04:13:23;;;;;;;18.33;16.23;;;;;19.10;101104.00;;;;2077863;28;20779;-68
2023/04/08 04:14:24;;;;;;;17.17;15.43;;;;;19.10;101112.00;;;;2079830;28;20251;-68
2023/04/08 04:15:24;;;;;;;16.93;15.07;;;;;19.10;101083.00;;;;2079740;28;20250;-68
2023/04/08 04:16:24;;;;;;;15.83;14.23;;;;;19.00;101079.00;;;;2078988;28;20223;-68
2023/04/08 04:17:25;;;;;;;17.07;15.37;;;;;19.00;101108.00;;;;2079732;28;20214;-68
2023/04/08 04:18:25;;;;;;;17.13;15.43;;;;;19.00;101105.00;;;;2079048;28;20227;-68
2023/04/08 04:19:29;;;;;;;18.07;16.00;;;;;19.00;101058.00;;;;2079766;28;20256;-68
2023/04/08 04:20:29;;;;;;;17.90;15.68;;;;;19.00;101106.00;;;;2079375;28;20221;-68
2023/04/08 04:21:30;;;;;;;16.10;14.40;;;;;19.00;101111.00;;;;2080388;28;20218;-68
2023/04/08 04:22:30;;;;;;;14.90;13.40;;;;;19.00;101078.00;;;;2079594;28;20244;-68
2023/04/08 04:23:30;;;;;;;16.03;13.87;;;;;19.00;101104.00;;;;2079088;28;20214;-68
2023/04/08 04:24:31;;;;;;;15.83;14.23;;;;;19.00;101121.00;;;;2079760;28;20602;-68
2023/04/08 04:25:31;;;;;;;15.40;13.80;;;;;19.00;101115.00;;;;2078400;28;20570;-68
2023/04/08 04:26:31;;;;;;;15.57;13.70;;;;;19.00;101129.00;;;;2078670;28;20605;-68
2023/04/08 04:27:32;;;;;;;14.77;13.27;;;;;19.00;101118.00;;;;2078498;28;20772;-68
2023/04/08 04:28:32;;;;;;;15.60;13.90;;;;;19.00;101111.00;;;;2083232;28;20627;-67
2023/04/08 04:29:32;;;;;;;15.70;14.00;;;;;19.00;101073.00;;;;2079147;28;20723;-68
2023/04/08 04:30:32;;;;;;;15.10;13.50;;;;;19.00;101118.00;;;;2082440;28;20684;-68
2023/04/08 04:31:33;;;;;;;15.37;13.17;;;;;19.00;101106.00;;;;2070768;28;20233;-68
2023/04/08 04:32:33;;;;;;;13.50;12.20;;;;;19.00;101119.00;;;;2072886;28;20216;-68
2023/04/08 04:33:34;;;;;;;15.23;13.67;;;;;19.00;101092.00;;;;2082493;28;20201;-68
2023/04/08 04:34:34;;;;;;;13.33;12.03;;;;;19.00;101118.00;;;;2079005;28;20233;-68
2023/04/08 04:35:34;;;;;;;13.17;11.80;;;;;19.00;101120.00;;;;2079832;28;20213;-68
2023/04/08 04:36:35;;;;;;;14.40;12.90;;;;;19.00;101127.00;;;;2079724;28;20631;-68
2023/04/08 04:37:35;;;;;;;14.67;13.13;;;;;19.00;101122.00;;;;2079032;28;20491;-68
2023/04/08 04:38:36;;;;;;;14.57;13.07;;;;;19.00;101122.00;;;;2079281;28;20217;-68
2023/04/08 04:39:36;;;;;;;13.80;12.40;;;;;19.00;101129.00;;;;2078824;28;20244;-68
2023/04/08 04:40:37;;;;;;;13.90;12.43;;;;;19.00;101121.00;;;;2079678;28;20216;-68
2023/04/08 04:41:39;;;;;;;13.53;12.23;;;;;19.00;101132.00;;;;2078025;28;20224;-68
2023/04/08 04:42:39;;;;;;;13.35;12.00;;;;;19.00;101128.00;;;;2073389;28;20445;-68
2023/04/08 04:43:40;;;;;;;14.30;12.83;;;;;19.00;101140.00;;;;2079399;28;20241;-68
2023/04/08 04:44:40;;;;;;;13.33;12.00;;;;;19.00;101134.00;;;;2081506;28;20213;-68
2023/04/08 04:45:40;;;;;;;12.80;11.50;;;;;19.00;101127.00;;;;2079593;28;20250;-68
2023/04/08 04:46:41;;;;;;;13.33;12.03;;;;;19.00;101129.00;;;;2078790;28;20236;-68
2023/04/08 04:47:41;;;;;;;13.80;12.40;;;;;19.00;101138.00;;;;2079625;28;20676;-68
2023/04/08 04:48:41;;;;;;;13.00;11.70;;;;;19.00;101141.00;;;;2078867;28;20229;-69
2023/04/08 04:49:42;;;;;;;12.33;11.13;;;;;19.00;101139.00;;;;2079550;28;20217;-68
2023/04/08 04:50:42;;;;;;;13.03;11.73;;;;;19.00;101144.00;;;;2079725;28;20213;-68
2023/04/08 04:51:42;;;;;;;11.73;10.47;;;;;18.90;101136.00;;;;2082536;28;20591;-68
2023/04/08 04:52:43;;;;;;;12.03;10.77;;;;;19.00;101140.00;;;;2078962;28;20624;-68
2023/04/08 04:53:43;;;;;;;12.37;11.10;;;;;19.00;101142.00;;;;2081395;28;20215;-68
2023/04/08 04:54:43;;;;;;;11.83;10.43;;;;;19.00;101126.00;;;;2081770;28;20209;-68